Time;durP1;ratioP1;P1;durP2;ratioP2;P2;SDS_P1;SDS_P2;PMS_P1;PMS_P2;Temp;Humidity;BMP_temperature;BMP_pressure;BME280_temperature;BME280_humidity;BME280_pressure;Samples;Min_cycle;Max_cycle;Signal;HPM_P1;HPM_P2
2023/08/15 00:01:57;;;;;;;3.67;2.90;;;28.60;56.50;;;;;;5150675;27;46682;-75
2023/08/15 00:04:24;;;;;;;3.78;2.97;;;28.60;56.60;;;;;;5150719;27;45390;-75
2023/08/15 00:06:50;;;;;;;4.25;3.00;;;28.60;56.50;;;;;;5150957;27;45409;-75
2023/08/15 00:09:17;;;;;;;2.85;2.65;;;28.50;56.50;;;;;;5151180;27;45288;-75
2023/08/15 00:11:44;;;;;;;2.40;2.20;;;28.50;56.50;;;;;;5150637;27;45430;-75
2023/08/15 00:14:12;;;;;;;3.33;3.03;;;28.50;56.50;;;;;;5150709;27;45320;-75
2023/08/15 00:16:40;;;;;;;2.95;2.75;;;28.50;56.50;;;;;;5150613;27;45640;-75
2023/08/15 00:19:07;;;;;;;3.47;3.10;;;28.50;56.50;;;;;;5150839;27;45319;-75
2023/08/15 00:21:34;;;;;;;3.95;3.05;;;28.50;56.50;;;;;;5149993;27;45242;-75
2023/08/15 00:24:00;;;;;;;3.22;2.80;;;28.50;56.50;;;;;;5150339;27;45331;-75
2023/08/15 00:26:27;;;;;;;4.15;3.15;;;28.40;56.50;;;;;;5150625;27;45129;-75
2023/08/15 00:28:54;;;;;;;6.28;3.22;;;28.40;56.50;;;;;;5150881;27;45484;-75
2023/08/15 00:31:21;;;;;;;4.32;2.90;;;28.40;56.50;;;;;;5150105;27;46381;-75
2023/08/15 00:33:49;;;;;;;3.20;2.90;;;28.40;56.50;;;;;;5150070;27;45358;-75
2023/08/15 00:36:17;;;;;;;3.35;3.05;;;28.40;56.50;;;;;;5150626;27;45382;-75
2023/08/15 00:38:44;;;;;;;3.47;3.17;;;28.40;56.60;;;;;;5150485;27;45233;-76
2023/08/15 00:41:11;;;;;;;2.80;2.60;;;28.40;56.70;;;;;;5149756;27;45706;-76
2023/08/15 00:43:38;;;;;;;3.28;2.95;;;28.40;56.60;;;;;;5149212;27;45285;-75
2023/08/15 00:46:06;;;;;;;2.72;2.53;;;28.30;56.50;;;;;;5150187;27;45255;-75
2023/08/15 00:48:33;;;;;;;2.80;2.60;;;28.30;56.50;;;;;;5150390;27;45423;-75
2023/08/15 00:51:02;;;;;;;3.42;3.10;;;28.30;56.60;;;;;;5149922;27;45297;-75
2023/08/15 00:53:29;;;;;;;4.72;3.42;;;28.30;56.60;;;;;;5149727;27;45366;-76
2023/08/15 00:55:57;;;;;;;3.42;3.10;;;28.30;56.50;;;;;;5150117;27;45331;-75
2023/08/15 00:58:23;;;;;;;3.03;2.72;;;28.30;56.60;;;;;;5149610;27;45470;-75
2023/08/15 01:00:51;;;;;;;3.40;3.10;;;28.30;56.60;;;;;;5149678;27;45429;-75
2023/08/15 01:03:18;;;;;;;3.45;2.90;;;28.30;56.60;;;;;;5149559;27;45455;-75
2023/08/15 01:05:44;;;;;;;3.05;2.75;;;28.20;56.50;;;;;;5149707;27;45192;-76
2023/08/15 01:08:13;;;;;;;3.20;2.60;;;28.20;56.60;;;;;;5150010;27;45385;-75
2023/08/15 01:10:40;;;;;;;2.92;2.63;;;28.20;56.60;;;;;;5149653;27;45467;-75
2023/08/15 01:13:09;;;;;;;3.22;2.70;;;28.20;56.60;;;;;;5149408;27;45314;-75
2023/08/15 01:15:39;;;;;;;2.70;2.50;;;28.20;56.60;;;;;;5149835;27;45324;-76
2023/08/15 01:18:08;;;;;;;3.72;2.75;;;28.20;56.70;;;;;;5149868;27;45479;-75
2023/08/15 01:20:36;;;;;;;3.30;2.70;;;28.20;56.70;;;;;;5149481;27;46649;-76
2023/08/15 01:23:05;;;;;;;3.13;2.67;;;28.20;56.70;;;;;;5149398;27;45260;-76
2023/08/15 01:25:34;;;;;;;4.50;2.40;;;28.10;56.70;;;;;;5149679;27;45365;-75
2023/08/15 01:28:01;;;;;;;3.10;2.78;;;28.10;56.70;;;;;;5148908;27;45515;-75
2023/08/15 01:30:27;;;;;;;3.42;3.13;;;28.10;56.70;;;;;;5149352;27;47545;-75
2023/08/15 01:32:59;;;;;;;3.38;2.60;;;28.10;56.60;;;;;;5148551;27;45381;-76
2023/08/15 01:35:28;;;;;;;3.20;2.88;;;28.10;56.70;;;;;;5148787;27;45595;-76
2023/08/15 01:37:58;;;;;;;3.30;3.00;;;28.10;56.60;;;;;;5149525;27;45362;-75
2023/08/15 01:40:25;;;;;;;3.92;2.42;;;28.10;56.70;;;;;;5149062;27;45722;-75
2023/08/15 01:42:55;;;;;;;2.90;2.70;;;28.00;56.90;;;;;;5149265;27;45370;-76
2023/08/15 01:45:23;;;;;;;3.28;2.90;;;28.00;56.60;;;;;;5148817;27;45331;-75
2023/08/15 01:47:49;;;;;;;3.75;2.45;;;28.00;56.60;;;;;;5149239;27;45188;-75
2023/08/15 01:50:16;;;;;;;3.80;2.63;;;28.00;56.70;;;;;;5149091;27;45302;-75
2023/08/15 01:52:43;;;;;;;3.20;2.90;;;28.00;56.70;;;;;;5148946;27;45360;-75
2023/08/15 01:55:11;;;;;;;2.97;2.70;;;28.00;56.80;;;;;;5148792;27;45390;-76
2023/08/15 01:57:38;;;;;;;2.58;2.33;;;28.00;56.70;;;;;;5149226;27;45505;-75
2023/08/15 02:00:08;;;;;;;3.05;2.45;;;28.00;56.80;;;;;;5148759;27;45309;-76
2023/08/15 02:02:35;;;;;;;2.97;2.53;;;27.90;56.70;;;;;;5148876;27;45295;-75
2023/08/15 02:05:02;;;;;;;4.45;2.95;;;27.90;56.70;;;;;;5148934;27;45308;-75
2023/08/15 02:07:29;;;;;;;2.85;2.65;;;27.90;56.80;;;;;;5148971;27;45362;-75
2023/08/15 02:09:55;;;;;;;3.10;2.85;;;27.90;56.80;;;;;;5147908;27;45489;-75
2023/08/15 02:12:22;;;;;;;3.10;2.70;;;27.90;56.80;;;;;;5148770;27;45250;-76
2023/08/15 02:14:49;;;;;;;2.80;2.53;;;27.90;56.70;;;;;;5148727;27;45318;-76
2023/08/15 02:17:17;;;;;;;2.80;2.60;;;27.90;56.80;;;;;;5149059;27;45390;-76
2023/08/15 02:19:44;;;;;;;3.20;2.90;;;27.90;56.70;;;;;;5148546;27;46366;-75
2023/08/15 02:22:11;;;;;;;3.10;2.80;;;27.80;56.70;;;;;;5147774;27;45401;-76
2023/08/15 02:24:38;;;;;;;2.65;2.45;;;27.80;56.70;;;;;;5148868;27;45318;-75
2023/08/15 02:27:05;;;;;;;2.60;2.40;;;27.80;57.40;;;;;;5148902;27;45377;-75
2023/08/15 02:29:32;;;;;;;3.58;2.58;;;27.80;56.70;;;;;;5148555;27;46652;-76
2023/08/15 02:31:58;;;;;;;2.58;2.38;;;27.80;56.70;;;;;;5148581;27;45342;-75
2023/08/15 02:34:27;;;;;;;2.78;2.50;;;27.80;56.70;;;;;;5148547;27;45292;-76
2023/08/15 02:36:53;;;;;;;3.58;2.80;;;27.80;56.80;;;;;;5148718;27;45292;-76
2023/08/15 02:39:20;;;;;;;3.67;2.67;;;27.80;56.80;;;;;;5148388;27;46457;-76
2023/08/15 02:41:47;;;;;;;3.58;2.97;;;27.80;56.80;;;;;;5148437;27;45294;-75
2023/08/15 02:44:14;;;;;;;3.10;2.90;;;27.80;56.80;;;;;;5148503;27;45424;-75
2023/08/15 02:46:41;;;;;;;2.70;2.45;;;27.70;56.80;;;;;;5148489;27;45231;-75
2023/08/15 02:49:08;;;;;;;3.78;2.90;;;27.70;56.80;;;;;;5148190;27;46715;-75
2023/08/15 02:51:36;;;;;;;2.72;2.53;;;27.70;56.80;;;;;;5148676;27;46451;-75
2023/08/15 02:54:03;;;;;;;2.78;2.58;;;27.70;56.80;;;;;;5147828;27;45304;-75
2023/08/15 02:56:30;;;;;;;3.00;2.70;;;27.70;56.80;;;;;;5148577;27;45365;-75
2023/08/15 02:58:57;;;;;;;3.00;2.70;;;27.70;56.80;;;;;;5148028;27;46342;-75
2023/08/15 03:01:24;;;;;;;3.00;2.60;;;27.70;56.80;;;;;;5147970;27;46044;-76
2023/08/15 03:03:51;;;;;;;2.92;2.72;;;27.70;56.80;;;;;;5148251;27;45322;-75
2023/08/15 03:06:17;;;;;;;2.50;2.30;;;27.60;56.80;;;;;;5147879;27;45317;-75
2023/08/15 03:08:48;;;;;;;2.72;2.53;;;27.60;56.80;;;;;;5147652;27;45319;-76
2023/08/15 03:11:15;;;;;;;2.78;2.58;;;27.60;56.80;;;;;;5148022;27;45328;-75
2023/08/15 03:13:41;;;;;;;2.80;2.60;;;27.60;56.80;;;;;;5148117;27;45370;-76
2023/08/15 03:16:08;;;;;;;2.55;2.33;;;27.60;56.80;;;;;;5148275;27;45290;-75
2023/08/15 03:18:35;;;;;;;3.13;2.83;;;27.60;56.80;;;;;;5148018;27;46681;-75
2023/08/15 03:21:02;;;;;;;2.75;2.50;;;27.60;56.80;;;;;;5149854;27;45306;-74
2023/08/15 03:23:29;;;;;;;2.65;2.45;;;27.60;56.80;;;;;;5151549;27;45255;-74
2023/08/15 03:25:58;;;;;;;2.60;2.40;;;27.50;56.70;;;;;;5151833;27;45415;-75
2023/08/15 03:28:25;;;;;;;2.65;2.40;;;27.60;56.80;;;;;;5151320;27;45489;-75
2023/08/15 03:30:51;;;;;;;2.60;2.40;;;27.50;56.70;;;;;;5151603;27;45337;-76
2023/08/15 03:33:18;;;;;;;2.55;2.35;;;27.50;56.70;;;;;;5151246;27;45303;-76
2023/08/15 03:35:46;;;;;;;3.00;2.67;;;27.50;56.80;;;;;;5151617;27;45314;-76
2023/08/15 03:38:14;;;;;;;2.63;2.42;;;27.50;56.70;;;;;;5151149;27;46455;-75
2023/08/15 03:40:41;;;;;;;2.92;2.30;;;27.50;56.80;;;;;;5151171;27;45360;-74
2023/08/15 03:43:10;;;;;;;2.80;2.60;;;27.50;56.80;;;;;;5151123;27;45189;-75
2023/08/15 03:45:36;;;;;;;2.97;2.40;;;27.50;56.80;;;;;;5151557;27;45335;-75
2023/08/15 03:48:05;;;;;;;2.65;2.45;;;27.40;56.70;;;;;;5150836;27;46602;-76
2023/08/15 03:50:33;;;;;;;2.38;2.17;;;27.40;56.80;;;;;;5150851;27;45318;-75
2023/08/15 03:53:00;;;;;;;2.53;2.33;;;27.40;56.70;;;;;;5150367;27;45262;-74
2023/08/15 03:55:27;;;;;;;2.90;2.60;;;27.40;56.70;;;;;;5150408;27;45259;-75
2023/08/15 03:57:53;;;;;;;4.53;2.53;;;27.40;56.80;;;;;;5150732;27;45333;-75
2023/08/15 04:00:22;;;;;;;2.83;2.33;;;27.40;56.70;;;;;;5150775;27;45281;-75
2023/08/15 04:02:49;;;;;;;2.60;2.38;;;27.40;56.80;;;;;;5150911;27;45317;-75
2023/08/15 04:05:17;;;;;;;2.42;2.25;;;27.30;56.80;;;;;;5150494;27;45236;-75
2023/08/15 04:07:44;;;;;;;3.35;2.60;;;27.30;56.80;;;;;;5150968;27;48131;-75
2023/08/15 04:10:11;;;;;;;2.40;2.20;;;27.30;56.80;;;;;;5150500;27;45325;-74
2023/08/15 04:12:38;;;;;;;2.55;2.45;;;27.30;56.80;;;;;;5150739;27;45278;-75
2023/08/15 04:15:06;;;;;;;2.45;2.28;;;27.30;56.80;;;;;;5150675;27;45272;-74
2023/08/15 04:17:34;;;;;;;3.53;2.50;;;27.20;56.70;;;;;;5150445;27;46465;-75
2023/08/15 04:20:01;;;;;;;2.80;2.50;;;27.20;56.70;;;;;;5150570;27;45449;-75
2023/08/15 04:22:28;;;;;;;3.00;2.70;;;27.20;56.90;;;;;;5150531;27;45319;-75
2023/08/15 04:24:55;;;;;;;2.70;2.50;;;27.20;56.80;;;;;;5150572;27;45374;-75
2023/08/15 04:27:21;;;;;;;2.70;2.50;;;27.20;56.90;;;;;;5150177;27;46433;-75
2023/08/15 04:29:48;;;;;;;2.58;2.35;;;27.20;56.90;;;;;;5150238;27;45451;-75
2023/08/15 04:32:15;;;;;;;2.50;2.30;;;27.10;56.80;;;;;;5149446;27;45445;-75
2023/08/15 04:34:43;;;;;;;2.35;2.15;;;27.10;56.80;;;;;;5150576;27;45691;-75
2023/08/15 04:37:10;;;;;;;2.70;2.50;;;27.10;56.80;;;;;;5150510;27;45276;-75
2023/08/15 04:39:37;;;;;;;2.33;2.13;;;27.10;56.80;;;;;;5149505;27;45189;-75
2023/08/15 04:42:04;;;;;;;3.30;2.45;;;27.10;56.80;;;;;;5150197;27;45219;-75
2023/08/15 04:44:31;;;;;;;2.80;2.60;;;27.10;56.70;;;;;;5150266;27;45462;-75
2023/08/15 04:46:57;;;;;;;2.75;2.55;;;27.10;57.40;;;;;;5150121;27;45457;-75
2023/08/15 04:49:24;;;;;;;4.05;2.38;;;27.10;56.70;;;;;;5150216;27;45270;-75
2023/08/15 04:51:53;;;;;;;2.63;2.42;;;27.10;56.70;;;;;;5149955;27;45338;-76
2023/08/15 04:54:19;;;;;;;3.50;2.30;;;27.10;56.70;;;;;;5149675;27;45471;-75
2023/08/15 04:56:46;;;;;;;3.40;2.53;;;27.10;56.70;;;;;;5149860;27;46644;-75
2023/08/15 04:59:14;;;;;;;2.58;2.38;;;27.10;56.70;;;;;;5150156;27;45119;-75
2023/08/15 05:01:41;;;;;;;2.88;2.58;;;27.10;56.60;;;;;;5149723;27;45330;-76
2023/08/15 05:04:08;;;;;;;2.42;2.22;;;27.00;56.60;;;;;;5149879;27;45384;-75
2023/08/15 05:06:35;;;;;;;2.50;2.30;;;27.00;56.50;;;;;;5149629;27;45990;-75
2023/08/15 05:09:03;;;;;;;2.30;2.10;;;27.00;56.50;;;;;;5149841;27;45228;-75
2023/08/15 05:11:30;;;;;;;2.75;2.35;;;27.00;56.50;;;;;;5149438;27;45327;-76
2023/08/15 05:13:58;;;;;;;2.63;2.42;;;27.00;56.50;;;;;;5149587;27;45257;-75
2023/08/15 05:16:24;;;;;;;2.65;2.45;;;27.00;56.50;;;;;;5149253;27;46412;-75
2023/08/15 05:18:51;;;;;;;3.58;2.72;;;27.00;56.50;;;;;;5149443;27;45473;-75
2023/08/15 05:21:18;;;;;;;2.63;2.15;;;27.00;56.50;;;;;;5149668;27;45227;-75
2023/08/15 05:23:45;;;;;;;3.80;2.30;;;27.00;56.50;;;;;;5148857;27;45361;-75
2023/08/15 05:26:13;;;;;;;2.33;2.13;;;27.00;56.50;;;;;;5148881;27;45239;-76
2023/08/15 05:28:40;;;;;;;2.40;2.20;;;27.00;56.50;;;;;;5149452;27;45388;-75
2023/08/15 05:31:07;;;;;;;2.25;2.15;;;27.00;56.40;;;;;;5149368;27;45381;-76
2023/08/15 05:33:34;;;;;;;2.80;2.17;;;27.00;56.40;;;;;;5149779;27;45313;-75
2023/08/15 05:36:01;;;;;;;2.58;2.38;;;27.00;56.40;;;;;;5149404;27;45400;-75
2023/08/15 05:38:27;;;;;;;2.60;2.40;;;27.00;56.40;;;;;;5149161;27;45216;-76
2023/08/15 05:40:54;;;;;;;2.20;2.00;;;27.00;56.40;;;;;;5149343;27;45365;-75
2023/08/15 05:43:23;;;;;;;2.78;2.20;;;27.00;56.40;;;;;;5149500;27;45366;-76
2023/08/15 05:45:49;;;;;;;3.15;2.22;;;27.00;56.40;;;;;;5149047;27;47273;-76
2023/08/15 05:48:16;;;;;;;2.47;2.20;;;27.00;56.40;;;;;;5149197;27;45395;-75
2023/08/15 05:50:43;;;;;;;2.08;1.95;;;27.00;56.40;;;;;;5149047;27;45260;-75
2023/08/15 05:53:10;;;;;;;2.95;2.30;;;27.00;56.50;;;;;;5149390;27;45274;-75
2023/08/15 05:55:37;;;;;;;2.40;2.10;;;26.90;56.50;;;;;;5148551;27;45616;-75
2023/08/15 05:58:04;;;;;;;2.53;2.10;;;26.90;56.40;;;;;;5149195;27;45257;-75
2023/08/15 06:00:33;;;;;;;3.25;2.10;;;26.90;56.40;;;;;;5148897;27;45414;-75
2023/08/15 06:03:00;;;;;;;2.75;2.38;;;26.90;56.50;;;;;;5149125;27;45528;-74
2023/08/15 06:05:30;;;;;;;2.63;2.00;;;26.90;56.50;;;;;;5148230;27;45445;-76
2023/08/15 06:07:57;;;;;;;3.10;1.92;;;26.90;56.50;;;;;;5148898;27;45330;-75
2023/08/15 06:10:24;;;;;;;1.92;1.83;;;26.90;56.50;;;;;;5148208;27;45379;-76
2023/08/15 06:12:51;;;;;;;2.47;2.10;;;26.90;56.50;;;;;;5148760;27;45333;-75
2023/08/15 06:15:18;;;;;;;2.50;2.22;;;26.90;56.50;;;;;;5148517;27;45368;-75
2023/08/15 06:17:46;;;;;;;2.33;2.10;;;26.90;56.50;;;;;;5148846;27;45376;-75
2023/08/15 06:20:13;;;;;;;2.42;2.22;;;26.90;56.40;;;;;;5149026;27;45183;-75
2023/08/15 06:22:40;;;;;;;2.30;2.15;;;26.90;56.40;;;;;;5148880;27;45419;-75
2023/08/15 06:25:07;;;;;;;2.20;2.00;;;26.90;56.40;;;;;;5148353;27;45525;-75
2023/08/15 06:27:34;;;;;;;2.40;2.20;;;26.90;56.30;;;;;;5148531;27;45334;-75
2023/08/15 06:30:01;;;;;;;2.42;2.22;;;26.90;56.30;;;;;;5148490;27;45321;-75
2023/08/15 06:32:28;;;;;;;2.50;2.30;;;26.90;56.30;;;;;;5146382;27;45161;-75
2023/08/15 06:34:57;;;;;;;2.47;2.28;;;26.90;56.30;;;;;;5145320;27;46404;-75
2023/08/15 06:37:23;;;;;;;2.22;2.03;;;26.90;56.30;;;;;;5148600;27;45327;-75
2023/08/15 06:39:50;;;;;;;2.50;2.00;;;26.90;56.30;;;;;;5148591;27;45330;-75
2023/08/15 06:42:17;;;;;;;2.20;2.00;;;26.90;56.90;;;;;;5148670;27;45188;-75
2023/08/15 06:44:44;;;;;;;2.78;2.53;;;26.90;56.30;;;;;;5148061;27;46644;-75
2023/08/15 06:47:11;;;;;;;2.35;2.15;;;26.90;56.20;;;;;;5148165;27;45361;-75
2023/08/15 06:49:38;;;;;;;2.33;2.13;;;26.90;56.20;;;;;;5148623;27;45264;-75
2023/08/15 06:52:07;;;;;;;2.30;2.10;;;26.90;56.20;;;;;;5148540;27;45260;-75
2023/08/15 06:54:33;;;;;;;3.03;2.67;;;26.90;56.20;;;;;;5147343;27;45511;-77
2023/08/15 06:57:00;;;;;;;2.20;2.00;;;26.90;56.10;;;;;;5150974;27;45282;-75
2023/08/15 06:59:28;;;;;;;2.03;1.88;;;26.90;56.10;;;;;;5152069;27;45325;-75
2023/08/15 07:01:55;;;;;;;2.47;2.28;;;26.90;56.10;;;;;;5151972;27;45439;-75
2023/08/15 07:04:21;;;;;;;2.90;1.77;;;27.00;56.10;;;;;;5151474;27;45269;-76
2023/08/15 07:06:48;;;;;;;2.03;1.80;;;27.00;56.00;;;;;;5151921;27;45337;-75
2023/08/15 07:09:16;;;;;;;2.40;2.20;;;27.00;56.00;;;;;;5151691;27;45385;-76
2023/08/15 07:11:44;;;;;;;2.63;1.80;;;27.00;56.60;;;;;;5151916;27;45418;-76
2023/08/15 07:14:10;;;;;;;2.10;1.90;;;27.00;56.00;;;;;;5151123;27;45294;-75
2023/08/15 07:16:37;;;;;;;2.33;2.03;;;27.00;55.90;;;;;;5151432;27;45339;-76
2023/08/15 07:19:05;;;;;;;2.70;2.15;;;27.00;55.80;;;;;;5151610;27;45206;-75
2023/08/15 07:21:31;;;;;;;3.00;1.90;;;27.00;55.80;;;;;;5151719;27;45473;-76
2023/08/15 07:23:58;;;;;;;2.00;1.90;;;27.00;55.80;;;;;;5151329;27;45460;-76
2023/08/15 07:26:26;;;;;;;2.22;2.00;;;27.00;55.80;;;;;;5151454;27;45321;-75
2023/08/15 07:28:53;;;;;;;2.08;1.95;;;27.00;55.60;;;;;;5148884;27;45287;-76
2023/08/15 07:31:20;;;;;;;2.03;1.92;;;27.00;55.50;;;;;;5151631;27;45378;-75
2023/08/15 07:33:47;;;;;;;1.77;1.67;;;27.00;56.20;;;;;;5150961;27;45450;-75
2023/08/15 07:36:14;;;;;;;2.10;2.00;;;27.00;55.50;;;;;;5151331;27;45381;-75
2023/08/15 07:38:41;;;;;;;2.20;1.98;;;27.00;55.50;;;;;;5151358;27;45314;-73
2023/08/15 07:41:08;;;;;;;2.85;1.92;;;27.00;55.60;;;;;;5150655;27;45314;-76
2023/08/15 07:43:36;;;;;;;4.13;2.20;;;27.00;55.50;;;;;;5151131;27;45456;-76
2023/08/15 07:46:03;;;;;;;2.38;2.08;;;27.00;55.50;;;;;;5150932;27;45402;-75
2023/08/15 07:48:30;;;;;;;2.10;1.90;;;27.00;55.40;;;;;;5151075;27;45279;-75
2023/08/15 07:50:57;;;;;;;2.30;2.10;;;27.00;55.40;;;;;;5151488;27;45314;-76
2023/08/15 07:53:24;;;;;;;2.58;2.00;;;27.10;55.40;;;;;;5150512;27;46364;-76
2023/08/15 07:55:51;;;;;;;2.20;1.80;;;27.10;55.20;;;;;;5150709;27;45407;-75
2023/08/15 07:58:17;;;;;;;1.85;1.73;;;27.10;55.10;;;;;;5151041;27;45404;-76
2023/08/15 08:00:46;;;;;;;2.17;1.98;;;27.10;55.10;;;;;;5151199;27;45417;-76
2023/08/15 08:03:13;;;;;;;2.20;1.70;;;27.20;55.10;;;;;;5150894;27;47346;-75
2023/08/15 08:05:40;;;;;;;2.25;1.80;;;27.20;55.00;;;;;;5150791;27;45312;-75
2023/08/15 08:08:06;;;;;;;2.33;2.00;;;27.20;54.90;;;;;;5149734;27;45316;-75
2023/08/15 08:10:33;;;;;;;2.88;2.10;;;27.20;54.90;;;;;;5151222;27;45360;-75
2023/08/15 08:13:01;;;;;;;1.98;1.88;;;27.30;54.80;;;;;;5150494;27;45446;-76
2023/08/15 08:15:27;;;;;;;1.98;1.73;;;27.20;54.80;;;;;;5150423;27;45306;-75
2023/08/15 08:17:56;;;;;;;2.03;1.92;;;27.30;54.70;;;;;;5151050;27;45210;-76
2023/08/15 08:20:23;;;;;;;2.38;2.00;;;27.30;54.70;;;;;;5150937;27;45422;-76
2023/08/15 08:22:49;;;;;;;2.10;1.65;;;27.30;54.70;;;;;;5150294;27;45541;-75
2023/08/15 08:25:17;;;;;;;1.98;1.88;;;27.40;54.70;;;;;;5149529;27;45294;-75
2023/08/15 08:27:45;;;;;;;2.08;1.88;;;27.40;54.60;;;;;;5150298;27;45277;-75
2023/08/15 08:30:12;;;;;;;2.10;1.63;;;27.40;54.50;;;;;;5150667;27;45365;-75
2023/08/15 08:32:39;;;;;;;2.03;1.83;;;27.40;54.40;;;;;;5150389;27;45397;-76
2023/08/15 08:35:09;;;;;;;2.00;1.70;;;27.40;54.30;;;;;;5149551;27;45384;-76
2023/08/15 08:37:36;;;;;;;1.50;1.40;;;27.40;54.30;;;;;;5150412;27;45248;-76
2023/08/15 08:40:04;;;;;;;2.10;1.88;;;27.50;54.50;;;;;;5150639;27;45411;-76
2023/08/15 08:42:31;;;;;;;1.85;1.70;;;27.50;54.60;;;;;;5150068;27;45239;-75
2023/08/15 08:44:58;;;;;;;1.77;1.67;;;27.50;54.50;;;;;;5149783;27;45310;-76
2023/08/15 08:47:26;;;;;;;2.00;1.80;;;27.50;54.40;;;;;;5150321;27;45377;-77
2023/08/15 08:49:52;;;;;;;1.80;1.70;;;27.60;54.50;;;;;;5150264;27;45611;-75
2023/08/15 08:52:21;;;;;;;1.80;1.70;;;27.60;54.40;;;;;;5149917;27;46366;-76
2023/08/15 08:54:47;;;;;;;1.80;1.70;;;27.70;54.30;;;;;;5149434;27;45409;-75
2023/08/15 08:57:14;;;;;;;1.85;1.75;;;27.70;54.20;;;;;;5150181;27;45316;-76
2023/08/15 08:59:43;;;;;;;2.15;1.70;;;27.70;54.10;;;;;;5150122;27;45412;-76
2023/08/15 09:02:11;;;;;;;1.80;1.70;;;27.80;54.70;;;;;;5149720;27;45518;-76
2023/08/15 09:04:38;;;;;;;2.00;1.90;;;27.80;54.10;;;;;;5149633;27;45326;-75
2023/08/15 09:07:05;;;;;;;2.03;1.83;;;27.80;54.00;;;;;;5150050;27;45268;-75
2023/08/15 09:09:33;;;;;;;1.83;1.73;;;27.80;53.90;;;;;;5149298;27;45295;-75
2023/08/15 09:12:00;;;;;;;1.73;1.63;;;27.80;53.80;;;;;;5149752;27;45463;-75
2023/08/15 09:14:27;;;;;;;1.73;1.63;;;27.90;53.80;;;;;;5149880;27;45313;-75
2023/08/15 09:16:54;;;;;;;2.90;1.85;;;27.90;53.70;;;;;;5149695;27;45283;-74
2023/08/15 09:19:21;;;;;;;1.55;1.45;;;27.90;53.60;;;;;;5149617;27;45464;-76
2023/08/15 09:21:47;;;;;;;1.80;1.70;;;27.90;53.60;;;;;;5149453;27;45719;-75
2023/08/15 09:24:14;;;;;;;1.85;1.55;;;28.00;53.60;;;;;;5149499;27;45438;-75
2023/08/15 09:26:43;;;;;;;2.33;1.70;;;28.00;53.50;;;;;;5147204;27;45328;-75
2023/08/15 09:29:09;;;;;;;1.90;1.80;;;28.10;53.40;;;;;;5150130;27;45669;-75
2023/08/15 09:31:39;;;;;;;1.90;1.80;;;28.10;53.30;;;;;;5146652;27;46171;-75
2023/08/15 09:34:09;;;;;;;1.70;1.60;;;28.10;53.30;;;;;;5149136;27;45350;-75
2023/08/15 09:36:36;;;;;;;1.85;1.73;;;28.10;53.20;;;;;;5149566;27;45315;-75
2023/08/15 09:39:08;;;;;;;1.90;1.70;;;28.10;53.20;;;;;;5150021;27;45326;-75
2023/08/15 09:41:35;;;;;;;2.33;1.92;;;28.20;53.20;;;;;;5149284;27;46586;-75
2023/08/15 09:44:03;;;;;;;2.10;1.60;;;28.20;53.10;;;;;;5146708;27;45447;-75
2023/08/15 09:46:30;;;;;;;1.73;1.63;;;28.20;53.00;;;;;;5149463;27;45356;-75
2023/08/15 09:48:57;;;;;;;1.67;1.58;;;28.20;53.00;;;;;;5149478;27;45312;-75
2023/08/15 09:51:24;;;;;;;1.80;1.70;;;28.30;53.00;;;;;;5149477;27;46645;-75
2023/08/15 09:53:50;;;;;;;1.80;1.70;;;28.30;53.00;;;;;;5148815;27;45329;-75
2023/08/15 09:56:18;;;;;;;1.73;1.63;;;28.30;52.90;;;;;;5149539;27;45332;-75
2023/08/15 09:58:45;;;;;;;3.10;1.85;;;28.30;52.80;;;;;;5149596;27;45304;-75
2023/08/15 10:01:14;;;;;;;2.08;1.77;;;28.40;52.90;;;;;;5148237;27;45333;-75
2023/08/15 10:03:41;;;;;;;2.30;1.67;;;28.40;52.90;;;;;;5148926;27;45393;-76
2023/08/15 10:06:08;;;;;;;2.00;1.80;;;28.40;52.90;;;;;;5149249;27;45354;-76
2023/08/15 10:08:36;;;;;;;1.60;1.50;;;28.30;52.70;;;;;;5148683;27;45484;-76
2023/08/15 10:11:03;;;;;;;1.50;1.40;;;28.40;52.90;;;;;;5149078;27;45298;-75
2023/08/15 10:13:31;;;;;;;2.63;1.65;;;28.40;52.70;;;;;;5145956;27;45318;-76
2023/08/15 10:15:59;;;;;;;1.98;1.58;;;28.40;52.70;;;;;;5148837;27;45336;-76
2023/08/15 10:18:27;;;;;;;1.75;1.65;;;28.40;52.60;;;;;;5149167;27;45317;-76
2023/08/15 10:20:56;;;;;;;1.80;1.70;;;28.40;52.60;;;;;;5148781;27;45482;-76
2023/08/15 10:23:27;;;;;;;1.70;1.60;;;28.40;52.60;;;;;;5148703;27;45268;-76
2023/08/15 10:25:54;;;;;;;1.80;1.65;;;28.40;52.60;;;;;;5148972;27;45352;-75
2023/08/15 10:28:20;;;;;;;2.05;1.73;;;28.50;52.60;;;;;;5149309;27;45564;-76
2023/08/15 10:30:48;;;;;;;1.52;1.40;;;28.50;53.20;;;;;;5147667;27;45333;-76
2023/08/15 10:33:16;;;;;;;1.58;1.48;;;28.50;52.60;;;;;;5148319;27;45372;-76
2023/08/15 10:35:51;;;;;;;1.90;1.80;;;28.50;52.50;;;;;;5148793;27;45203;-76
2023/08/15 10:38:19;;;;;;;1.80;1.60;;;28.50;52.50;;;;;;5148752;27;45288;-76
2023/08/15 10:40:46;;;;;;;1.52;1.38;;;28.50;52.40;;;;;;5145526;27;45440;-76
2023/08/15 10:43:14;;;;;;;2.03;1.73;;;28.60;52.40;;;;;;5148431;27;45302;-76
2023/08/15 10:45:42;;;;;;;1.80;1.70;;;28.60;52.40;;;;;;5148616;27;45282;-76
2023/08/15 10:48:09;;;;;;;1.70;1.60;;;28.60;52.30;;;;;;5149057;27;45306;-76
2023/08/15 10:50:36;;;;;;;1.73;1.42;;;28.70;52.30;;;;;;5148082;27;46416;-74
2023/08/15 10:53:05;;;;;;;2.05;1.83;;;28.70;52.20;;;;;;5147825;27;45283;-77
2023/08/15 10:55:33;;;;;;;1.88;1.70;;;28.80;52.30;;;;;;5148105;27;45245;-77
2023/08/15 10:58:00;;;;;;;1.55;1.33;;;28.80;52.20;;;;;;5148621;27;45188;-76
2023/08/15 11:00:27;;;;;;;1.80;1.70;;;28.80;52.20;;;;;;5145509;27;45287;-76
2023/08/15 11:02:54;;;;;;;1.83;1.65;;;28.90;52.20;;;;;;5147927;27;45401;-76
2023/08/15 11:05:21;;;;;;;2.03;1.80;;;28.90;52.10;;;;;;5148379;27;45237;-77
2023/08/15 11:07:48;;;;;;;1.50;1.40;;;29.00;52.10;;;;;;5148660;27;45255;-76
2023/08/15 11:10:16;;;;;;;1.52;1.42;;;29.00;52.50;;;;;;5147935;27;46635;-76
2023/08/15 11:12:49;;;;;;;1.42;1.33;;;29.10;51.90;;;;;;5145312;27;45425;-76
2023/08/15 11:15:16;;;;;;;1.60;1.50;;;29.10;51.80;;;;;;5148185;27;45409;-76
2023/08/15 11:17:46;;;;;;;1.67;1.58;;;29.20;51.80;;;;;;5148408;27;45429;-75
2023/08/15 11:20:13;;;;;;;1.60;1.50;;;29.20;51.70;;;;;;5147980;27;45441;-76
2023/08/15 11:22:40;;;;;;;1.52;1.45;;;29.30;51.60;;;;;;5148387;27;45263;-76
2023/08/15 11:25:08;;;;;;;1.95;1.75;;;29.40;51.50;;;;;;5147984;27;45393;-75
2023/08/15 11:27:40;;;;;;;1.73;1.63;;;29.40;51.20;;;;;;5149576;27;45296;-76
2023/08/15 11:30:10;;;;;;;1.40;1.30;;;29.50;51.30;;;;;;5149380;27;45514;-76
2023/08/15 11:32:41;;;;;;;1.77;1.50;;;29.60;51.30;;;;;;5148589;27;45318;-76
2023/08/15 11:35:09;;;;;;;1.55;1.45;;;29.60;51.10;;;;;;5148776;27;45323;-76
2023/08/15 11:37:36;;;;;;;1.52;1.42;;;29.70;51.20;;;;;;5149340;27;45438;-77
2023/08/15 11:40:03;;;;;;;2.83;1.52;;;29.70;51.00;;;;;;5148078;27;46670;-76
2023/08/15 11:42:30;;;;;;;1.50;1.40;;;29.70;51.20;;;;;;5146488;27;45512;-75
2023/08/15 11:45:20;;;;;;;1.65;1.55;;;29.80;51.30;;;;;;5151205;27;45898;-75
2023/08/15 11:47:58;;;;;;;1.50;1.40;;;29.80;51.20;;;;;;5141657;27;45370;-74
2023/08/15 11:50:26;;;;;;;2.40;1.52;;;29.80;50.70;;;;;;5142896;27;45590;-74
2023/08/15 11:52:53;;;;;;;2.33;1.70;;;29.90;50.90;;;;;;5150131;27;45489;-74
2023/08/15 11:55:20;;;;;;;1.65;1.50;;;29.90;51.10;;;;;;5149757;27;45503;-74
2023/08/15 11:57:47;;;;;;;1.50;1.40;;;29.90;51.10;;;;;;5151188;27;45233;-74
2023/08/15 12:00:16;;;;;;;2.47;1.60;;;29.90;51.20;;;;;;5152107;27;46680;-74
2023/08/15 12:02:45;;;;;;;1.50;1.40;;;29.90;51.10;;;;;;5150180;27;45421;-73
2023/08/15 12:05:12;;;;;;;1.55;1.45;;;30.00;51.00;;;;;;5150884;27;45347;-76
2023/08/15 12:07:38;;;;;;;2.03;1.38;;;30.10;51.00;;;;;;5150658;27;45539;-76
2023/08/15 12:10:06;;;;;;;1.63;1.50;;;30.10;51.00;;;;;;5149349;27;46465;-76
2023/08/15 12:12:37;;;;;;;2.38;1.50;;;30.10;50.90;;;;;;5152553;27;45464;-76
2023/08/15 12:15:05;;;;;;;1.50;1.40;;;30.20;50.90;;;;;;5151636;27;45230;-76
2023/08/15 12:17:32;;;;;;;1.63;1.52;;;30.30;50.60;;;;;;5154135;27;45556;-74
2023/08/15 12:20:00;;;;;;;2.25;1.65;;;30.40;50.40;;;;;;5152628;27;46193;-75
2023/08/15 12:22:27;;;;;;;1.60;1.27;;;30.40;50.30;;;;;;5153362;27;45305;-75
2023/08/15 12:24:54;;;;;;;1.55;1.45;;;30.40;50.40;;;;;;5154519;27;45299;-76
2023/08/15 12:27:21;;;;;;;1.75;1.65;;;30.30;50.60;;;;;;5152847;27;44943;-76
2023/08/15 12:29:48;;;;;;;1.80;1.60;;;30.30;50.80;;;;;;5154417;27;45688;-77
2023/08/15 12:32:15;;;;;;;2.10;1.65;;;30.20;50.70;;;;;;5156013;27;44846;-77
2023/08/15 12:34:42;;;;;;;1.55;1.40;;;30.20;50.80;;;;;;5152227;27;45332;-77
2023/08/15 12:37:10;;;;;;;1.70;1.55;;;30.20;50.60;;;;;;5151281;27;45386;-74
2023/08/15 12:39:37;;;;;;;1.50;1.40;;;30.30;51.00;;;;;;5151018;27;45460;-75
2023/08/15 12:42:05;;;;;;;1.52;1.42;;;30.20;50.80;;;;;;5153444;27;45300;-75
2023/08/15 12:44:32;;;;;;;1.95;1.42;;;30.30;51.00;;;;;;5149997;27;45390;-73
2023/08/15 12:46:59;;;;;;;1.77;1.50;;;30.30;50.90;;;;;;5153359;27;45176;-75
2023/08/15 12:49:26;;;;;;;1.48;1.38;;;30.30;50.80;;;;;;5142267;27;45465;-75